Time;durP1;ratioP1;P1;durP2;ratioP2;P2;SDS_P1;SDS_P2;PMS_P1;PMS_P2;Temp;Humidity;BMP_temperature;BMP_pressure;BME280_temperature;BME280_humidity;BME280_pressure;Samples;Min_cycle;Max_cycle;Signal;HPM_P1;HPM_P2
2022/09/07 00:00:52;;;;;;;8.57;4.35;;;;;;;20.19;90.60;101167.78;5073385;28;20047;-55
2022/09/07 00:03:20;;;;;;;7.40;3.90;;;;;;;20.19;89.67;101175.28;5075205;28;20045;-55
2022/09/07 00:05:50;;;;;;;5.57;3.50;;;;;;;20.08;87.45;101168.41;5074146;28;20063;-53
2022/09/07 00:08:20;;;;;;;8.25;3.90;;;;;;;20.11;88.82;101165.03;5060012;28;20044;-53
2022/09/07 00:10:55;;;;;;;6.22;3.53;;;;;;;20.21;88.47;101151.66;5068847;28;20498;-54
2022/09/07 00:13:24;;;;;;;6.85;3.55;;;;;;;20.32;87.35;101159.63;5074350;28;20059;-52
2022/09/07 00:15:52;;;;;;;8.07;3.30;;;;;;;20.46;87.75;101167.78;5073925;28;20053;-52
2022/09/07 00:18:20;;;;;;;6.55;3.60;;;;;;;20.52;86.64;101166.50;5063238;28;20517;-57
2022/09/07 00:20:58;;;;;;;7.18;3.65;;;;;;;20.49;87.03;101170.69;5067678;28;20063;-51
2022/09/07 00:23:27;;;;;;;9.82;4.63;;;;;;;20.48;87.64;101179.34;5071041;28;20059;-51
2022/09/07 00:26:02;;;;;;;7.63;4.05;;;;;;;20.39;88.94;101179.34;5079798;28;20502;-53
2022/09/07 00:28:30;;;;;;;8.63;4.45;;;;;;;20.33;89.34;101166.81;5073063;28;20037;-53
2022/09/07 00:30:58;;;;;;;9.52;4.38;;;;;;;20.26;90.07;101169.25;5072368;28;20044;-55
2022/09/07 00:33:27;;;;;;;9.05;4.70;;;;;;;20.18;90.42;101154.28;5056764;28;20039;-52
2022/09/07 00:35:56;;;;;;;8.73;4.55;;;;;;;20.18;90.94;101154.28;5075052;28;20047;-52
2022/09/07 00:38:24;;;;;;;8.27;4.20;;;;;;;20.03;90.52;101154.75;5073396;28;20086;-53
2022/09/07 00:40:52;;;;;;;6.88;3.90;;;;;;;20.04;90.67;101150.88;5061976;28;20052;-55
2022/09/07 00:43:33;;;;;;;8.63;4.30;;;;;;;19.99;90.68;101149.06;5068081;28;20071;-52
2022/09/07 00:46:02;;;;;;;9.07;3.95;;;;;;;19.88;90.57;101139.44;5072125;28;20054;-52
2022/09/07 00:48:37;;;;;;;8.85;4.45;;;;;;;19.79;91.04;101136.66;5063032;28;20407;-54
2022/09/07 00:51:08;;;;;;;8.77;4.20;;;;;;;19.75;91.72;101132.94;5056647;28;20040;-53
2022/09/07 00:53:43;;;;;;;8.60;4.20;;;;;;;19.67;91.98;101128.16;5073260;28;20037;-52
2022/09/07 00:56:12;;;;;;;7.18;3.90;;;;;;;19.65;92.83;101119.34;5073205;28;20048;-52
2022/09/07 00:58:41;;;;;;;7.78;4.07;;;;;;;19.58;92.50;101117.91;5070865;28;20052;-54
2022/09/07 01:01:09;;;;;;;7.00;3.88;;;;;;;19.59;92.33;101119.50;5060603;28;20450;-52
2022/09/07 01:03:44;;;;;;;6.82;3.60;;;;;;;19.53;91.77;101112.53;5060458;28;20040;-53
2022/09/07 01:06:19;;;;;;;7.43;4.00;;;;;;;19.49;91.96;101111.53;5070895;28;20452;-52
2022/09/07 01:08:48;;;;;;;5.40;3.30;;;;;;;19.49;92.24;101107.97;5068140;28;20555;-53
2022/09/07 01:11:20;;;;;;;7.20;3.67;;;;;;;19.34;92.30;101121.09;5052527;28;20048;-56
2022/09/07 01:13:49;;;;;;;6.72;3.47;;;;;;;19.33;93.03;101113.09;5067789;28;20094;-53
2022/09/07 01:16:30;;;;;;;6.95;3.17;;;;;;;19.41;92.71;101115.09;5060460;28;20041;-53
2022/09/07 01:19:42;;;;;;;7.40;3.88;;;;;;;19.35;92.10;101110.84;5069033;28;20056;-53
2022/09/07 01:22:21;;;;;;;5.93;3.22;;;;;;;19.32;92.98;101109.53;5072592;28;20498;-53
2022/09/07 01:25:09;;;;;;;4.22;2.97;;;;;;;19.27;93.10;101109.69;5064666;28;20079;-57
2022/09/07 01:27:42;;;;;;;5.80;2.97;;;;;;;19.26;92.64;101096.19;5057452;28;20066;-55
2022/09/07 01:30:12;;;;;;;6.60;3.25;;;;;;;19.26;92.86;101104.47;5076178;28;20041;-56
2022/09/07 01:32:48;;;;;;;6.93;2.90;;;;;;;19.29;91.87;101101.88;5064889;28;20045;-54
2022/09/07 01:36:00;;;;;;;5.47;2.97;;;;;;;19.35;91.94;101114.41;5062575;28;20032;-52
2022/09/07 01:38:55;;;;;;;6.72;2.95;;;;;;;19.50;90.86;101118.66;5057907;28;20410;-54
2022/09/07 01:41:31;;;;;;;4.85;2.80;;;;;;;19.48;90.74;101120.97;5058223;28;20406;-52
2022/09/07 01:44:25;;;;;;;6.45;3.20;;;;;;;19.51;90.68;101125.84;5059326;28;20041;-56
2022/09/07 01:47:12;;;;;;;5.43;2.90;;;;;;;19.48;90.85;101129.25;5061060;28;20051;-52
2022/09/07 01:49:59;;;;;;;5.93;2.45;;;;;;;19.50;90.76;101126.97;5066188;28;20033;-52
2022/09/07 01:52:47;;;;;;;3.42;2.30;;;;;;;19.40;90.70;101113.44;5065862;28;20070;-53
2022/09/07 01:55:30;;;;;;;4.38;2.38;;;;;;;19.43;90.35;101117.53;5068229;28;20052;-53
2022/09/07 01:58:02;;;;;;;5.75;2.92;;;;;;;19.40;90.91;101105.16;5068952;28;20502;-51
2022/09/07 02:00:31;;;;;;;5.80;2.78;;;;;;;19.28;91.08;101105.78;5051946;28;20116;-54
2022/09/07 02:03:14;;;;;;;4.00;2.70;;;;;;;19.06;93.41;101103.91;5067111;28;20032;-55
2022/09/07 02:06:08;;;;;;;4.72;2.63;;;;;;;19.10;93.38;101099.38;5061359;28;20510;-54
2022/09/07 02:08:41;;;;;;;4.53;2.47;;;;;;;19.09;92.78;101113.50;5059981;28;20422;-57
2022/09/07 02:11:19;;;;;;;4.72;2.42;;;;;;;19.08;92.93;101107.16;5071603;28;20044;-54
2022/09/07 02:13:57;;;;;;;5.18;2.85;;;;;;;19.10;92.92;101106.88;5073193;28;20089;-55
2022/09/07 02:16:29;;;;;;;6.78;2.97;;;;;;;19.02;92.57;101100.13;5057901;28;20040;-52
2022/09/07 02:19:12;;;;;;;3.97;2.47;;;;;;;19.00;93.51;101099.66;5057855;28;20028;-52
2022/09/07 02:21:44;;;;;;;4.00;2.38;;;;;;;19.01;93.05;101104.06;5065130;28;20151;-53
2022/09/07 02:24:27;;;;;;;3.30;2.40;;;;;;;19.11;93.31;101123.09;5061800;28;20044;-53
2022/09/07 02:26:55;;;;;;;3.03;2.30;;;;;;;19.24;92.86;101121.38;5067806;28;20482;-53
2022/09/07 02:29:23;;;;;;;3.85;2.30;;;;;;;19.37;91.84;101117.66;5071678;28;20037;-51
2022/09/07 02:31:54;;;;;;;3.72;2.33;;;;;;;19.47;91.05;101111.03;5071568;28;20467;-54
2022/09/07 02:34:22;;;;;;;4.10;2.72;;;;;;;19.52;90.38;101102.59;5063459;28;20418;-53
2022/09/07 02:36:50;;;;;;;6.18;2.60;;;;;;;19.50;90.23;101098.53;5066706;28;20051;-56
2022/09/07 02:39:18;;;;;;;4.47;2.50;;;;;;;19.41;90.17;101093.00;5074911;28;20102;-54
2022/09/07 02:41:46;;;;;;;4.15;2.75;;;;;;;19.36;90.90;101088.41;5065789;28;20045;-50
2022/09/07 02:44:18;;;;;;;5.20;2.78;;;;;;;19.34;90.76;101087.13;5069780;28;20513;-54
2022/09/07 02:47:09;;;;;;;2.95;2.40;;;;;;;19.34;91.29;101090.69;5073536;28;20040;-51
2022/09/07 02:50:04;;;;;;;4.43;2.25;;;;;;;19.43;91.14;101096.22;5076785;28;20044;-53
2022/09/07 02:52:43;;;;;;;3.72;2.25;;;;;;;19.55;90.73;101103.88;5076852;28;20044;-56
2022/09/07 02:55:46;;;;;;;2.83;2.17;;;;;;;19.64;89.87;101095.63;5075684;28;20040;-54
2022/09/07 02:58:21;;;;;;;3.42;2.30;;;;;;;19.68;89.83;101093.88;5073281;28;20044;-53
2022/09/07 03:01:06;;;;;;;4.80;2.53;;;;;;;19.68;89.55;101091.94;5076626;28;20062;-54
2022/09/07 03:03:41;;;;;;;5.03;2.70;;;;;;;19.68;89.58;101085.59;5075585;28;20055;-53
2022/09/07 03:06:29;;;;;;;6.25;2.90;;;;;;;19.66;89.66;101082.31;5074677;28;20491;-51
2022/09/07 03:08:59;;;;;;;5.60;2.80;;;;;;;19.64;90.08;101084.56;5076969;28;20417;-52
2022/09/07 03:11:28;;;;;;;5.55;2.90;;;;;;;19.65;89.49;101092.56;5064643;28;20056;-51
2022/09/07 03:14:16;;;;;;;5.05;2.40;;;;;;;19.66;88.83;101088.63;5076019;28;20039;-52
2022/09/07 03:16:45;;;;;;;5.05;2.63;;;;;;;19.66;89.06;101098.88;5072507;28;20052;-53
2022/09/07 03:19:13;;;;;;;4.13;2.58;;;;;;;19.66;89.35;101088.63;5066167;28;20040;-54
2022/09/07 03:21:41;;;;;;;4.93;2.70;;;;;;;19.65;89.13;101086.19;5075893;28;20098;-52
2022/09/07 03:24:09;;;;;;;4.80;2.78;;;;;;;19.65;89.25;101080.66;5061614;28;20055;-52
2022/09/07 03:26:43;;;;;;;3.90;2.58;;;;;;;19.66;89.12;101087.81;5053400;28;20040;-53
2022/09/07 03:29:10;;;;;;;3.90;2.70;;;;;;;19.64;89.22;101081.81;5076225;28;20049;-52
2022/09/07 03:31:38;;;;;;;4.82;2.75;;;;;;;19.63;89.23;101085.72;5078307;28;20107;-53
2022/09/07 03:34:06;;;;;;;5.40;3.08;;;;;;;19.61;89.40;101088.00;5073532;28;20525;-53
2022/09/07 03:36:34;;;;;;;5.40;3.00;;;;;;;19.55;89.68;101087.31;5056427;28;20041;-52
2022/09/07 03:39:02;;;;;;;6.10;3.00;;;;;;;19.51;90.17;101092.69;5075399;28;20067;-52
2022/09/07 03:41:30;;;;;;;6.90;3.17;;;;;;;19.47;89.95;101094.44;5067062;28;20403;-53
2022/09/07 03:44:03;;;;;;;5.40;2.65;;;;;;;19.45;90.52;101088.44;5069598;28;20044;-54
2022/09/07 03:46:31;;;;;;;4.05;2.60;;;;;;;19.46;90.32;101087.31;5054809;28;20458;-50
2022/09/07 03:48:59;;;;;;;7.22;2.80;;;;;;;19.47;90.10;101077.88;5058550;28;20045;-56
2022/09/07 03:51:27;;;;;;;5.85;2.75;;;;;;;19.46;90.02;101079.00;5064792;28;20506;-53
2022/09/07 03:53:55;;;;;;;6.15;3.03;;;;;;;19.45;89.97;101082.91;5072807;28;20494;-52
2022/09/07 03:56:24;;;;;;;5.20;3.10;;;;;;;19.44;89.85;101086.00;5074595;28;20037;-52
2022/09/07 03:58:53;;;;;;;6.78;3.33;;;;;;;19.42;89.96;101089.06;5065032;28;20051;-53
2022/09/07 04:01:23;;;;;;;7.35;3.45;;;;;;;19.40;89.95;101085.81;5066827;28;20510;-52
2022/09/07 04:03:51;;;;;;;8.45;3.65;;;;;;;19.36;90.13;101087.59;5053147;28;20045;-55
2022/09/07 04:06:19;;;;;;;7.65;3.03;;;;;;;19.33;90.27;101096.53;5070323;28;20113;-56
2022/09/07 04:08:47;;;;;;;11.98;3.45;;;;;;;19.31;90.81;101088.56;5074812;28;20494;-53
2022/09/07 04:11:17;;;;;;;6.75;3.47;;;;;;;19.28;90.66;101093.91;5073987;28;20460;-55
2022/09/07 04:13:45;;;;;;;7.30;3.17;;;;;;;19.24;90.76;101095.69;5064541;28;20081;-53
2022/09/07 04:16:19;;;;;;;5.35;3.25;;;;;;;19.23;91.18;101081.06;5073853;28;20048;-55
2022/09/07 04:18:49;;;;;;;8.65;3.20;;;;;;;19.22;91.00;101073.91;5057208;28;20544;-52
2022/09/07 04:21:21;;;;;;;9.30;3.60;;;;;;;19.20;91.08;101069.84;5058790;28;20045;-52
2022/09/07 04:23:49;;;;;;;6.68;3.10;;;;;;;19.21;91.24;101065.94;5056018;28;20039;-55
2022/09/07 04:26:19;;;;;;;9.48;3.22;;;;;;;19.24;90.99;101052.31;5067243;28;20053;-55
2022/09/07 04:28:47;;;;;;;8.35;3.40;;;;;;;19.24;91.25;101041.25;5057069;28;20049;-53
2022/09/07 04:31:17;;;;;;;9.27;3.63;;;;;;;19.23;91.09;101044.34;5049224;28;20041;-54
2022/09/07 04:33:46;;;;;;;10.85;3.97;;;;;;;19.18;91.40;101048.06;5067539;28;20040;-53
2022/09/07 04:36:14;;;;;;;9.48;4.00;;;;;;;19.11;91.59;101056.00;5061775;28;20067;-52
2022/09/07 04:38:42;;;;;;;12.25;3.90;;;;;;;19.07;91.95;101050.31;5069921;28;20036;-51
2022/09/07 04:41:15;;;;;;;5.57;3.08;;;;;;;19.06;92.19;101059.72;5059241;28;20503;-51
2022/09/07 04:43:43;;;;;;;9.68;3.55;;;;;;;19.06;92.32;101065.25;5071482;28;20495;-51
2022/09/07 04:46:33;;;;;;;8.48;3.65;;;;;;;19.07;92.06;101071.56;5072147;28;20108;-55
2022/09/07 04:49:05;;;;;;;6.90;3.10;;;;;;;19.10;92.02;101066.25;5074534;28;20048;-53
2022/09/07 04:51:33;;;;;;;5.22;3.10;;;;;;;19.14;91.71;101067.19;5065347;28;20487;-52
2022/09/07 04:54:02;;;;;;;9.43;3.67;;;;;;;19.14;91.62;101067.19;5067373;28;20101;-52
2022/09/07 04:56:31;;;;;;;6.70;3.47;;;;;;;19.13;91.70;101062.81;5042379;28;20040;-54
2022/09/07 04:59:01;;;;;;;5.50;3.08;;;;;;;19.15;91.18;101062.53;5074235;28;20044;-52
2022/09/07 05:01:29;;;;;;;8.55;3.28;;;;;;;19.18;90.95;101066.59;5067835;28;20041;-53
2022/09/07 05:03:59;;;;;;;6.50;3.38;;;;;;;19.18;90.81;101072.91;5065047;28;20037;-53
2022/09/07 05:06:27;;;;;;;6.68;3.70;;;;;;;19.20;91.00;101080.91;5075779;28;20055;-52
2022/09/07 05:08:56;;;;;;;7.22;3.45;;;;;;;19.21;90.72;101079.75;5074669;28;20040;-52
2022/09/07 05:11:25;;;;;;;10.02;3.60;;;;;;;19.21;91.29;101091.59;5073348;28;20778;-54
2022/09/07 05:13:57;;;;;;;8.93;4.40;;;;;;;19.19;91.71;101082.00;5058892;28;20056;-53
2022/09/07 05:16:25;;;;;;;8.35;4.10;;;;;;;19.18;91.74;101072.13;5062309;28;20380;-53
2022/09/07 05:18:55;;;;;;;8.43;4.00;;;;;;;19.18;91.70;101074.88;5073754;28;20044;-50
2022/09/07 05:21:25;;;;;;;6.68;4.18;;;;;;;19.19;91.94;101073.72;5071217;28;20041;-52
2022/09/07 05:23:54;;;;;;;6.05;3.80;;;;;;;19.21;91.68;101077.00;5065436;28;20044;-53
2022/09/07 05:26:24;;;;;;;7.10;3.55;;;;;;;19.25;91.39;101072.47;5063076;28;20056;-53
2022/09/07 05:28:52;;;;;;;7.22;3.67;;;;;;;19.25;91.17;101080.75;5059538;28;20045;-55
2022/09/07 05:31:40;;;;;;;7.30;3.72;;;;;;;19.29;90.55;101079.78;5072310;28;20032;-53
2022/09/07 05:34:08;;;;;;;5.70;3.75;;;;;;;19.30;90.88;101075.06;5065488;28;20494;-51
2022/09/07 05:36:56;;;;;;;6.53;3.80;;;;;;;19.30;90.40;101081.41;5073027;28;20044;-53
2022/09/07 05:39:24;;;;;;;7.05;4.05;;;;;;;19.34;90.11;101081.59;5065533;28;20044;-52
2022/09/07 05:41:52;;;;;;;8.90;4.20;;;;;;;19.33;90.36;101079.94;5060777;28;20041;-51
2022/09/07 05:44:20;;;;;;;7.28;3.90;;;;;;;19.33;90.63;101079.94;5071749;28;20071;-54
2022/09/07 05:47:08;;;;;;;7.38;4.10;;;;;;;19.32;90.58;101081.09;5073527;28;20105;-52
2022/09/07 05:49:36;;;;;;;7.75;4.05;;;;;;;19.34;89.64;101081.59;5073970;28;20043;-53
2022/09/07 05:52:04;;;;;;;8.07;4.28;;;;;;;19.35;89.79;101088.72;5061420;28;20051;-55
2022/09/07 05:54:32;;;;;;;5.50;3.90;;;;;;;19.35;89.98;101083.22;5073401;28;20124;-50
2022/09/07 05:57:01;;;;;;;7.60;4.03;;;;;;;19.35;89.86;101083.22;5074272;28;20529;-49
2022/09/07 05:59:29;;;;;;;9.65;4.10;;;;;;;19.34;90.15;101087.13;5076681;28;20092;-52
2022/09/07 06:01:57;;;;;;;10.68;4.75;;;;;;;19.35;90.24;101083.22;5069285;28;20037;-52
2022/09/07 06:04:25;;;;;;;7.65;4.40;;;;;;;19.36;90.26;101073.78;5068173;28;20044;-51
2022/09/07 06:06:52;;;;;;;9.05;4.50;;;;;;;19.35;90.37;101083.22;5070633;28;20441;-53
2022/09/07 06:09:40;;;;;;;7.10;4.37;;;;;;;19.35;89.76;101091.50;4367600;28;10000654;-52
2022/09/07 06:12:28;;;;;;;9.25;4.50;;;;;;;19.34;89.63;101087.94;5063540;28;20295;-62
2022/09/07 06:14:56;;;;;;;8.13;4.60;;;;;;;19.31;90.67;101087.72;5062405;28;20454;-59
2022/09/07 06:17:24;;;;;;;7.90;4.35;;;;;;;19.33;90.46;101079.94;5067945;28;20060;-55
2022/09/07 06:19:52;;;;;;;8.65;4.65;;;;;;;19.35;90.73;101083.22;5051120;28;20087;-59
2022/09/07 06:22:19;;;;;;;10.38;4.95;;;;;;;19.33;90.86;101083.50;5065286;28;20051;-59
2022/09/07 06:24:47;;;;;;;10.07;5.25;;;;;;;19.34;90.66;101093.44;5063284;28;20053;-60
2022/09/07 06:27:15;;;;;;;12.30;5.32;;;;;;;19.34;90.92;101103.69;5068780;28;20047;-58
2022/09/07 06:29:43;;;;;;;9.98;5.50;;;;;;;19.30;91.36;101108.22;5060624;28;20051;-60
2022/09/07 06:32:10;;;;;;;8.60;5.32;;;;;;;19.32;91.23;101105.97;5067166;28;20041;-60
2022/09/07 06:34:58;;;;;;;9.73;5.57;;;;;;;19.34;91.14;101106.47;5057512;28;20052;-58
2022/09/07 06:37:26;;;;;;;8.52;5.78;;;;;;;19.35;91.64;101105.31;5068197;28;20445;-60
2022/09/07 06:39:54;;;;;;;10.68;5.25;;;;;;;19.35;91.38;101110.84;5069332;28;20040;-61
2022/09/07 06:42:22;;;;;;;7.93;5.20;;;;;;;19.33;92.14;101110.34;5057206;28;20106;-58
2022/09/07 06:44:52;;;;;;;8.55;5.75;;;;;;;19.32;92.52;101105.97;5062223;28;20045;-53
2022/09/07 06:47:20;;;;;;;7.85;5.10;;;;;;;19.34;91.24;101109.22;5051705;28;20044;-53
2022/09/07 06:49:48;;;;;;;9.32;5.70;;;;;;;19.35;91.43;101105.31;5048056;28;20040;-53
2022/09/07 06:52:16;;;;;;;11.23;5.63;;;;;;;19.41;89.96;101115.09;5059025;28;20045;-57
2022/09/07 06:54:43;;;;;;;13.70;6.30;;;;;;;19.42;90.67;101113.13;5054046;28;20048;-53
2022/09/07 06:57:27;;;;;;;11.10;6.60;;;;;;;19.44;90.60;101113.63;5054354;28;20041;-53
2022/09/07 06:59:55;;;;;;;10.55;7.25;;;;;;;19.47;89.91;101116.56;5062821;28;20069;-52
2022/09/07 07:02:22;;;;;;;11.43;6.25;;;;;;;19.50;88.99;101112.34;5057936;28;20045;-53
2022/09/07 07:04:50;;;;;;;13.35;6.97;;;;;;;19.57;88.94;101118.22;5060675;28;20049;-52
2022/09/07 07:07:18;;;;;;;12.77;7.32;;;;;;;19.56;88.91;101111.88;5052937;28;20041;-51
2022/09/07 07:09:46;;;;;;;9.27;6.22;;;;;;;19.69;87.32;101123.94;5061530;28;20044;-53
2022/09/07 07:12:13;;;;;;;11.73;7.22;;;;;;;19.72;88.29;101125.25;5061878;28;20441;-49
2022/09/07 07:14:41;;;;;;;14.40;8.50;;;;;;;19.67;88.43;101123.44;5070484;28;20506;-51
2022/09/07 07:17:12;;;;;;;11.93;6.97;;;;;;;19.66;87.98;101126.53;5072294;28;20413;-51
2022/09/07 07:19:39;;;;;;;12.80;8.80;;;;;;;19.63;89.64;101127.19;5070989;28;20053;-50
2022/09/07 07:22:07;;;;;;;8.82;4.68;;;;;;;19.55;85.71;101126.84;5069623;28;20489;-53
2022/09/07 07:24:55;;;;;;;16.67;10.02;;;;;;;19.53;89.50;101123.59;5065717;28;20053;-52
2022/09/07 07:27:23;;;;;;;30.92;12.68;;;;;;;19.48;91.05;101120.97;5070207;28;20465;-53
2022/09/07 07:29:52;;;;;;;85.40;22.65;;;;;;;19.54;88.62;101122.44;5067726;28;20041;-53
2022/09/07 07:32:20;;;;;;;101.32;29.35;;;;;;;19.64;87.06;101123.28;5056091;28;20522;-51
2022/09/07 07:35:07;;;;;;;52.22;18.05;;;;;;;19.65;88.45;101119.34;5056164;28;20041;-51
2022/09/07 07:37:47;;;;;;;19.35;13.43;;;;;;;19.59;90.65;101133.34;5056961;28;20055;-51
2022/09/07 07:40:15;;;;;;;34.97;15.93;;;;;;;19.56;90.33;101128.47;5055488;28;20409;-51
2022/09/07 07:42:47;;;;;;;56.58;19.27;;;;;;;19.65;88.15;101131.25;5061482;28;20375;-50
2022/09/07 07:45:15;;;;;;;32.60;15.05;;;;;;;19.70;90.28;101139.41;5071814;28;20106;-52
2022/09/07 07:48:03;;;;;;;35.47;16.30;;;;;;;19.87;87.38;101141.41;5066010;28;20041;-52
2022/09/07 07:50:30;;;;;;;37.70;13.07;;;;;;;19.89;86.35;101141.91;5074340;28;20090;-52
2022/09/07 07:53:00;;;;;;;21.88;15.70;;;;;;;19.84;89.72;101147.56;5061869;28;20072;-50
2022/09/07 07:55:47;;;;;;;19.58;16.40;;;;;;;19.85;90.89;101146.44;5070091;28;20040;-53
2022/09/07 07:58:15;;;;;;;24.65;19.08;;;;;;;19.73;92.96;101149.03;5064139;28;20049;-51
2022/09/07 08:00:43;;;;;;;22.25;16.83;;;;;;;19.67;93.20;101145.53;5073693;28;20044;-50
2022/09/07 08:03:23;;;;;;;22.05;17.85;;;;;;;19.71;92.09;101143.81;5062853;28;20033;-53
2022/09/07 08:05:51;;;;;;;18.40;13.57;;;;;;;19.77;90.96;101147.22;5066007;28;20075;-50
2022/09/07 08:08:19;;;;;;;21.67;14.57;;;;;;;19.77;92.34;101148.06;5072106;28;20108;-53
2022/09/07 08:10:47;;;;;;;19.48;16.48;;;;;;;19.75;93.93;101152.28;5062682;28;20037;-52
2022/09/07 08:13:15;;;;;;;22.90;17.65;;;;;;;19.71;94.47;101159.59;5066498;28;20041;-55
2022/09/07 08:15:44;;;;;;;20.40;14.82;;;;;;;19.71;94.47;101151.28;5074760;28;20052;-52
2022/09/07 08:18:13;;;;;;;22.35;16.55;;;;;;;19.79;93.37;101154.09;5074234;28;20044;-53
2022/09/07 08:20:40;;;;;;;22.98;15.48;;;;;;;19.92;91.84;101163.38;5073145;28;20037;-54
2022/09/07 08:23:09;;;;;;;22.25;16.63;;;;;;;19.97;91.70;101160.44;5064088;28;20040;-54
2022/09/07 08:25:36;;;;;;;18.00;13.20;;;;;;;20.04;91.27;101170.22;5064043;28;20072;-56
2022/09/07 08:28:04;;;;;;;23.38;15.07;;;;;;;20.05;91.34;101161.59;5074232;28;20040;-56
2022/09/07 08:30:32;;;;;;;23.42;18.25;;;;;;;19.97;93.67;101171.50;5068344;28;20049;-52
2022/09/07 08:32:59;;;;;;;20.48;15.90;;;;;;;19.90;93.96;101165.63;5073803;28;20047;-53
2022/09/07 08:35:27;;;;;;;20.88;16.58;;;;;;;19.88;94.40;101165.13;5076262;28;20051;-52
2022/09/07 08:37:54;;;;;;;22.38;17.65;;;;;;;19.68;96.05;101171.28;5077643;28;20090;-50
2022/09/07 08:40:22;;;;;;;19.20;15.98;;;;;;;19.62;96.43;101164.25;5077508;28;20487;-51
2022/09/07 08:43:10;;;;;;;22.02;16.83;;;;;;;19.61;97.33;101168.97;5070746;28;20044;-54
2022/09/07 08:45:47;;;;;;;23.83;17.40;;;;;;;19.54;97.41;101185.19;5055901;28;20041;-55
2022/09/07 08:48:26;;;;;;;20.33;15.00;;;;;;;19.46;96.23;101184.03;5060166;28;20444;-53
2022/09/07 08:51:12;;;;;;;18.02;12.80;;;;;;;19.57;96.34;101184.53;5072237;28;20037;-53
2022/09/07 08:53:45;;;;;;;;;;;;;;;19.64;95.36;101181.31;5073989;28;20042;-52
2022/09/07 08:56:26;;;;;;;19.95;14.02;;;;;;;19.62;94.91;101180.81;5064256;28;19921;-51
2022/09/07 08:59:05;;;;;;;18.60;14.27;;;;;;;19.68;94.76;101182.34;5073257;28;20433;-53
2022/09/07 09:01:40;;;;;;;20.17;13.70;;;;;;;19.70;94.79;101175.38;5068838;28;20214;-53
2022/09/07 09:04:25;;;;;;;14.68;11.43;;;;;;;19.80;94.15;101177.00;5069682;28;20055;-56
2022/09/07 09:07:18;;;;;;;16.10;12.68;;;;;;;19.85;94.21;101178.81;5068153;28;20040;-52
2022/09/07 09:10:23;;;;;;;16.67;12.05;;;;;;;19.90;92.03;101176.69;5069754;28;20494;-58
2022/09/07 09:13:28;;;;;;;17.63;12.95;;;;;;;19.96;92.79;101182.88;5072426;28;20097;-54
2022/09/07 09:16:11;;;;;;;17.05;12.95;;;;;;;19.92;92.13;101185.50;5064140;28;20049;-53
2022/09/07 09:18:45;;;;;;;16.65;12.95;;;;;;;19.89;92.68;101180.63;5073386;28;20093;-56
2022/09/07 09:21:17;;;;;;;18.88;13.23;;;;;;;19.88;93.15;101189.22;5069627;28;20494;-53
2022/09/07 09:23:51;;;;;;;17.52;11.45;;;;;;;19.88;92.90;101178.97;5067852;28;20041;-55
2022/09/07 09:26:26;;;;;;;17.13;13.57;;;;;;;19.86;92.41;101180.44;5065152;28;20033;-55
2022/09/07 09:28:54;;;;;;;14.35;11.45;;;;;;;19.90;92.80;101178.66;5062885;28;20097;-56
2022/09/07 09:31:31;;;;;;;14.57;9.93;;;;;;;19.96;92.39;101183.72;5058702;28;20110;-54
2022/09/07 09:34:10;;;;;;;16.48;12.88;;;;;;;19.98;92.32;101189.72;5056177;28;20045;-52
2022/09/07 09:36:42;;;;;;;12.80;9.82;;;;;;;20.05;91.90;101182.91;5068899;28;20057;-53
2022/09/07 09:39:30;;;;;;;17.63;13.43;;;;;;;20.07;91.58;101186.16;5070010;28;20109;-58
2022/09/07 09:42:16;;;;;;;18.08;12.82;;;;;;;20.00;90.70;101187.44;5058038;28;20048;-52
2022/09/07 09:44:44;;;;;;;13.43;10.65;;;;;;;20.03;90.80;101180.44;5040027;28;20045;-55
2022/09/07 09:47:31;;;;;;;14.88;11.32;;;;;;;20.11;90.56;101187.97;5066279;28;20071;-53
2022/09/07 09:50:27;;;;;;;14.23;11.45;;;;;;;20.17;89.09;101196.91;5051786;28;20037;-52
2022/09/07 09:53:33;;;;;;;15.20;11.00;;;;;;;20.18;89.09;101181.97;5064889;28;20037;-54
2022/09/07 09:56:02;;;;;;;16.00;11.57;;;;;;;20.20;89.16;101182.44;5059328;28;20485;-55
2022/09/07 09:58:36;;;;;;;19.05;11.80;;;;;;;20.24;88.70;101180.66;5072445;28;20567;-54
2022/09/07 10:01:34;;;;;;;14.45;10.77;;;;;;;20.28;87.71;101180.81;5065912;28;20044;-53
2022/09/07 10:04:33;;;;;;;13.00;9.65;;;;;;;20.31;87.47;101186.50;5074666;28;20044;-54
2022/09/07 10:07:03;;;;;;;14.73;10.30;;;;;;;20.29;85.16;101174.94;5063531;28;20037;-52
2022/09/07 10:09:40;;;;;;;13.70;8.93;;;;;;;20.31;86.07;101169.91;5064170;28;20064;-56
2022/09/07 10:12:22;;;;;;;15.07;9.57;;;;;;;20.34;86.44;101171.19;5073137;28;20043;-54
2022/09/07 10:14:50;;;;;;;14.48;9.35;;;;;;;20.38;87.53;101169.41;5073815;28;20041;-54
2022/09/07 10:17:37;;;;;;;23.73;10.63;;;;;;;20.43;86.47;101161.75;5072900;28;20413;-57
2022/09/07 10:20:14;;;;;;;16.38;8.50;;;;;;;20.54;86.05;101161.41;5066932;28;20128;-56
2022/09/07 10:22:51;;;;;;;15.57;8.95;;;;;;;20.55;84.62;101163.91;5056193;28;20105;-53
2022/09/07 10:25:32;;;;;;;15.13;8.60;;;;;;;20.58;83.50;101156.91;5068693;28;20052;-57
2022/09/07 10:28:11;;;;;;;12.88;7.15;;;;;;;20.63;82.77;101159.47;5068541;28;20055;-54
2022/09/07 10:31:10;;;;;;;14.77;7.47;;;;;;;20.67;83.42;101171.53;5066536;28;20059;-54
2022/09/07 10:34:05;;;;;;;15.48;7.72;;;;;;;20.74;82.54;101165.50;5066752;28;20040;-54
2022/09/07 10:37:05;;;;;;;16.35;6.75;;;;;;;20.76;81.51;101161.28;5072099;28;20037;-52
2022/09/07 10:39:41;;;;;;;9.65;5.68;;;;;;;20.82;81.14;101161.91;5071897;28;20062;-52
2022/09/07 10:42:22;;;;;;;;;;;;;;;20.88;81.16;101157.81;5052228;28;20048;-57
2022/09/07 10:45:10;;;;;;;10.88;5.30;;;;;;;20.97;78.43;101157.78;5060857;28;19973;-54
2022/09/07 10:47:53;;;;;;;10.70;5.15;;;;;;;21.03;77.32;101151.75;5068397;28;20052;-54
2022/09/07 10:50:31;;;;;;;11.20;4.35;;;;;;;21.09;77.16;101149.59;5065445;28;20422;-54
2022/09/07 10:53:27;;;;;;;7.93;3.70;;;;;;;21.17;77.14;101146.00;5067771;28;20049;-54
2022/09/07 10:56:20;;;;;;;10.43;4.97;;;;;;;21.27;77.40;101151.16;4365287;28;10000604;-59
2022/09/07 10:59:30;;;;;;;12.75;5.40;;;;;;;21.28;76.97;101147.22;5066643;28;20078;-55
2022/09/07 11:02:50;;;;;;;7.85;4.32;;;;;;;21.33;77.36;101139.88;5022783;28;20116;-58
2022/09/07 11:06:07;;;;;;;13.25;5.82;;;;;;;21.34;75.98;101144.31;5008648;28;20412;-55
2022/09/07 11:08:59;;;;;;;12.00;5.32;;;;;;;21.30;76.25;101146.09;5054139;28;20097;-54
2022/09/07 11:11:59;;;;;;;10.68;3.80;;;;;;;21.35;75.77;101140.38;5059676;28;20036;-57
2022/09/07 11:14:38;;;;;;;10.27;4.00;;;;;;;21.38;75.43;101150.78;5067490;28;20530;-57
2022/09/07 11:17:13;;;;;;;10.95;4.25;;;;;;;21.44;74.95;101146.72;5053300;28;20041;-52
2022/09/07 11:19:56;;;;;;;11.33;3.90;;;;;;;21.40;73.76;101151.28;5060950;28;20579;-51
2022/09/07 11:22:40;;;;;;;12.90;3.63;;;;;;;21.39;73.52;101147.72;5065143;28;20059;-54
2022/09/07 11:25:20;;;;;;;10.45;3.42;;;;;;;21.47;74.00;101143.28;5058408;28;20118;-54
2022/09/07 11:28:19;;;;;;;13.50;4.03;;;;;;;21.58;71.68;101136.22;5066284;28;20455;-52
2022/09/07 11:31:00;;;;;;;21.98;4.72;;;;;;;21.64;71.49;101129.31;5050889;28;20125;-55
2022/09/07 11:33:34;;;;;;;25.65;5.78;;;;;;;21.66;71.44;101126.19;5050198;28;20052;-54
2022/09/07 11:36:07;;;;;;;9.77;3.58;;;;;;;21.63;70.56;101124.09;5054017;28;20106;-51
2022/09/07 11:38:46;;;;;;;25.23;4.68;;;;;;;21.62;69.92;101134.41;5057147;28;20048;-55
2022/09/07 11:41:29;;;;;;;13.43;3.55;;;;;;;21.65;69.90;101133.72;5062506;28;20526;-54
2022/09/07 11:44:08;;;;;;;18.30;3.75;;;;;;;21.68;70.20;101132.22;5066757;28;20053;-54
2022/09/07 11:46:46;;;;;;;8.25;3.10;;;;;;;21.66;70.35;101134.53;5064359;28;20101;-55
2022/09/07 11:49:21;;;;;;;14.13;3.80;;;;;;;21.62;69.38;101130.78;5072098;28;20448;-57
2022/09/07 11:52:03;;;;;;;9.85;3.25;;;;;;;21.65;68.58;101128.16;5067197;28;20044;-55
2022/09/07 11:55:03;;;;;;;10.20;3.22;;;;;;;21.70;68.95;101122.41;5061621;28;20502;-56
2022/09/07 11:57:59;;;;;;;10.20;2.58;;;;;;;21.73;68.79;101128.44;5065798;28;20098;-55